createdAt,value
2018-03-29T00:00:17.978Z,21.80
2018-03-29T00:01:18.128Z,22.60
2018-03-29T00:02:18.277Z,22.40
2018-03-29T00:03:18.424Z,22.00
2018-03-29T00:04:18.573Z,21.70
2018-03-29T00:05:18.718Z,22.00
2018-03-29T00:06:18.864Z,22.00
2018-03-29T00:07:19.011Z,21.40
2018-03-29T00:08:19.162Z,21.60
2018-03-29T00:09:19.362Z,22.40
2018-03-29T00:10:19.452Z,22.60
2018-03-29T00:11:19.600Z,22.50
2018-03-29T00:12:19.745Z,22.10
2018-03-29T00:13:19.892Z,20.30
2018-03-29T00:14:20.036Z,20.00
2018-03-29T00:15:20.181Z,19.80
2018-03-29T00:16:20.329Z,19.60
2018-03-29T00:17:20.476Z,21.70
2018-03-29T00:18:20.622Z,18.80
2018-03-29T00:19:22.604Z,19.20
2018-03-29T00:20:20.888Z,19.20
2018-03-29T00:21:21.035Z,19.80
2018-03-29T00:22:21.183Z,18.00
2018-03-29T00:23:21.332Z,18.10
2018-03-29T00:24:21.477Z,19.40
2018-03-29T00:25:21.659Z,19.30
2018-03-29T00:26:21.773Z,19.70
2018-03-29T00:27:21.921Z,19.60
2018-03-29T00:28:22.066Z,17.70
2018-03-29T00:29:22.215Z,17.60
2018-03-29T00:30:22.358Z,18.90
2018-03-29T00:31:22.504Z,19.80
2018-03-29T00:32:22.652Z,19.70
2018-03-29T00:33:22.799Z,20.10
2018-03-29T00:34:22.946Z,20.80
2018-03-29T00:35:23.090Z,19.60
2018-03-29T00:36:23.240Z,20.20
2018-03-29T00:37:23.385Z,20.90
2018-03-29T00:38:23.537Z,19.70
2018-03-29T00:39:23.680Z,17.90
2018-03-29T00:40:23.826Z,19.00
2018-03-29T00:41:23.973Z,18.80
2018-03-29T00:42:24.129Z,19.90
2018-03-29T00:43:24.268Z,21.10
2018-03-29T00:44:24.413Z,20.00
2018-03-29T00:45:24.560Z,21.20
2018-03-29T00:46:24.711Z,19.60
2018-03-29T00:47:24.860Z,20.00
2018-03-29T00:48:25.006Z,19.90
2018-03-29T00:49:25.158Z,21.00
2018-03-29T00:50:25.299Z,21.60
2018-03-29T00:51:25.446Z,21.70
2018-03-29T00:52:25.593Z,21.50
2018-03-29T00:53:25.736Z,18.00
2018-03-29T00:54:25.883Z,19.50
2018-03-29T00:55:26.031Z,20.60
2018-03-29T00:56:26.177Z,20.80
2018-03-29T00:57:26.324Z,20.70
2018-03-29T00:58:26.467Z,17.60
2018-03-29T00:59:26.618Z,19.10
2018-03-29T01:00:26.765Z,18.60
2018-03-29T01:01:26.910Z,18.00
2018-03-29T01:02:27.055Z,17.80
2018-03-29T01:03:27.204Z,17.70
2018-03-29T01:04:27.356Z,17.40
2018-03-29T01:05:27.499Z,18.50
2018-03-29T01:06:27.651Z,20.30
2018-03-29T01:07:27.795Z,20.00
2018-03-29T01:08:27.942Z,19.70
2018-03-29T01:09:28.081Z,19.00
2018-03-29T01:10:28.227Z,17.90
2018-03-29T01:11:28.374Z,18.20
2018-03-29T01:12:28.520Z,17.80
2018-03-29T01:13:28.665Z,17.30
2018-03-29T01:14:28.812Z,16.90
2018-03-29T01:15:28.961Z,18.20
2018-03-29T01:16:29.106Z,19.20
2018-03-29T01:17:29.254Z,18.00
2018-03-29T01:18:29.401Z,18.50
2018-03-29T01:19:29.550Z,18.90
2018-03-29T01:20:29.694Z,18.30
2018-03-29T01:21:29.844Z,18.00
2018-03-29T01:22:29.992Z,18.90
2018-03-29T01:23:30.141Z,17.90
2018-03-29T01:24:30.287Z,18.30
2018-03-29T01:25:30.434Z,20.40
2018-03-29T01:26:30.580Z,20.00
2018-03-29T01:27:30.733Z,21.00
2018-03-29T01:28:30.871Z,20.50
2018-03-29T01:29:31.025Z,19.60
2018-03-29T01:30:31.166Z,20.00
2018-03-29T01:31:31.316Z,19.60
2018-03-29T01:32:31.463Z,18.40
2018-03-29T01:33:31.604Z,19.50
2018-03-29T01:34:31.751Z,19.20
2018-03-29T01:35:31.901Z,19.20
2018-03-29T01:36:32.048Z,19.20
2018-03-29T01:37:32.192Z,19.20
2018-03-29T01:38:32.340Z,18.90
2018-03-29T01:39:32.488Z,19.50
2018-03-29T01:40:32.635Z,18.20
2018-03-29T01:41:32.782Z,19.10
2018-03-29T01:42:32.927Z,17.30
2018-03-29T01:43:33.074Z,14.90
2018-03-29T01:44:33.221Z,15.60
2018-03-29T01:45:33.370Z,15.20
2018-03-29T01:46:33.516Z,13.50
2018-03-29T01:47:33.663Z,15.00
2018-03-29T01:48:33.812Z,13.70
2018-03-29T01:49:33.957Z,13.10
2018-03-29T01:50:34.103Z,14.10
2018-03-29T01:51:34.247Z,13.70
2018-03-29T01:52:34.393Z,13.60
2018-03-29T01:53:34.539Z,13.00
2018-03-29T01:54:34.690Z,13.60
2018-03-29T01:55:34.835Z,13.70
2018-03-29T01:56:34.983Z,13.30
2018-03-29T01:57:35.129Z,13.20
2018-03-29T01:58:35.276Z,12.30
2018-03-29T01:59:35.423Z,12.20
2018-03-29T02:00:35.571Z,12.00
2018-03-29T02:01:35.716Z,11.80
2018-03-29T02:02:35.863Z,11.50
2018-03-29T02:03:36.012Z,11.10
2018-03-29T02:04:36.153Z,10.40
2018-03-29T02:05:36.299Z,10.70
2018-03-29T02:06:36.446Z,10.50
2018-03-29T02:07:36.643Z,10.60
2018-03-29T02:08:36.744Z,10.90
2018-03-29T02:09:36.888Z,11.00
2018-03-29T02:10:37.028Z,11.20
2018-03-29T02:11:37.172Z,11.30
2018-03-29T02:12:37.319Z,10.30
2018-03-29T02:13:37.471Z,10.40
2018-03-29T02:14:37.613Z,10.80
2018-03-29T02:15:37.759Z,9.80
2018-03-29T02:16:37.909Z,10.40
2018-03-29T02:17:38.052Z,9.40
2018-03-29T02:18:38.198Z,9.70
2018-03-29T02:19:38.342Z,9.40
2018-03-29T02:20:38.489Z,9.40
2018-03-29T02:21:38.635Z,9.40
2018-03-29T02:22:38.785Z,9.00
2018-03-29T02:23:38.931Z,9.30
2018-03-29T02:24:39.073Z,8.70
2018-03-29T02:25:39.221Z,8.80
2018-03-29T02:26:39.369Z,8.30
2018-03-29T02:27:39.511Z,8.30
2018-03-29T02:28:39.658Z,8.10
2018-03-29T02:29:39.807Z,8.30
2018-03-29T02:30:39.951Z,7.40
2018-03-29T02:31:40.101Z,7.20
2018-03-29T02:32:40.249Z,7.80
2018-03-29T02:33:40.395Z,7.70
2018-03-29T02:34:40.541Z,7.00
2018-03-29T02:35:40.684Z,6.40
2018-03-29T02:36:40.834Z,6.70
2018-03-29T02:37:40.979Z,5.70
2018-03-29T02:38:41.127Z,6.00
2018-03-29T02:39:41.274Z,5.70
2018-03-29T02:40:41.421Z,5.60
2018-03-29T02:41:41.570Z,5.90
2018-03-29T02:42:41.713Z,5.80
2018-03-29T02:43:41.855Z,5.70
2018-03-29T02:44:42.004Z,5.70
2018-03-29T02:45:42.154Z,5.60
2018-03-29T02:46:42.296Z,6.10
2018-03-29T02:47:42.442Z,5.30
2018-03-29T02:48:42.587Z,5.20
2018-03-29T02:49:42.733Z,5.60
2018-03-29T02:50:42.882Z,5.50
2018-03-29T02:51:43.049Z,5.70
2018-03-29T02:52:43.178Z,5.90
2018-03-29T02:53:43.328Z,5.40
2018-03-29T02:54:43.475Z,5.80
2018-03-29T02:55:43.625Z,6.10
2018-03-29T02:56:43.767Z,6.20
2018-03-29T02:57:43.911Z,6.30
2018-03-29T02:58:44.058Z,5.60
2018-03-29T02:59:44.206Z,5.80
2018-03-29T03:00:44.348Z,5.90
2018-03-29T03:01:44.495Z,5.70
2018-03-29T03:02:44.640Z,6.00
2018-03-29T03:03:44.787Z,5.60
2018-03-29T03:04:44.933Z,6.00
2018-03-29T03:05:45.082Z,5.50
2018-03-29T03:06:45.229Z,5.60
2018-03-29T03:07:45.377Z,5.40
2018-03-29T03:08:45.517Z,5.20
2018-03-29T03:09:45.664Z,5.10
2018-03-29T03:10:45.819Z,4.90
2018-03-29T03:11:45.962Z,5.10
2018-03-29T03:12:46.106Z,4.50
2018-03-29T03:13:46.255Z,5.10
2018-03-29T03:14:46.397Z,5.30
2018-03-29T03:15:46.544Z,4.70
2018-03-29T03:16:46.693Z,4.60
2018-03-29T03:17:46.833Z,4.80
2018-03-29T03:18:46.981Z,4.90
2018-03-29T03:19:47.130Z,4.60
2018-03-29T03:20:47.270Z,4.90
2018-03-29T03:21:47.418Z,4.80
2018-03-29T03:22:47.564Z,4.70
2018-03-29T03:23:47.712Z,4.80
2018-03-29T03:24:47.856Z,5.00
2018-03-29T03:25:48.002Z,5.00
2018-03-29T03:26:48.149Z,5.20
2018-03-29T03:27:48.299Z,5.60
2018-03-29T03:28:48.445Z,5.60
2018-03-29T03:29:48.590Z,5.60
2018-03-29T03:30:48.745Z,6.00
2018-03-29T03:31:48.884Z,6.10
2018-03-29T03:32:49.030Z,6.40
2018-03-29T03:33:49.176Z,6.50
2018-03-29T03:34:49.323Z,6.60
2018-03-29T03:35:49.474Z,6.70
2018-03-29T03:36:49.616Z,7.10
2018-03-29T03:37:49.761Z,7.10
2018-03-29T03:38:49.910Z,7.20
2018-03-29T03:39:50.057Z,7.20
2018-03-29T03:40:50.214Z,7.80
2018-03-29T03:41:50.361Z,7.90
2018-03-29T03:42:50.504Z,7.60
2018-03-29T03:43:50.647Z,8.00
2018-03-29T03:44:50.792Z,8.10
2018-03-29T03:45:50.949Z,8.40
2018-03-29T03:46:51.098Z,8.20
2018-03-29T03:47:51.244Z,8.90
2018-03-29T03:48:51.389Z,9.20
2018-03-29T03:49:51.531Z,9.80
2018-03-29T03:50:51.678Z,8.80
2018-03-29T03:51:51.832Z,9.30
2018-03-29T03:52:51.971Z,9.60
2018-03-29T03:53:52.121Z,9.80
2018-03-29T03:54:52.265Z,9.70
2018-03-29T03:55:52.410Z,10.20
2018-03-29T03:56:52.553Z,10.50
2018-03-29T03:57:52.707Z,10.50
2018-03-29T03:58:52.847Z,10.90
2018-03-29T03:59:52.996Z,11.10
2018-03-29T04:00:53.139Z,11.60
2018-03-29T04:01:53.286Z,11.90
2018-03-29T04:02:53.430Z,11.90
2018-03-29T04:03:53.571Z,11.30
2018-03-29T04:04:53.719Z,12.40
2018-03-29T04:05:53.864Z,12.30
2018-03-29T04:06:54.012Z,12.10
2018-03-29T04:07:54.158Z,12.60
2018-03-29T04:08:54.308Z,11.60
2018-03-29T04:09:54.451Z,11.10
2018-03-29T04:10:54.602Z,11.70
2018-03-29T04:11:54.744Z,11.70
2018-03-29T04:12:54.894Z,11.60
2018-03-29T04:13:55.039Z,11.80
2018-03-29T04:14:55.186Z,11.90
2018-03-29T04:15:55.332Z,12.40
2018-03-29T04:16:55.479Z,12.30
2018-03-29T04:17:55.629Z,12.20
2018-03-29T04:18:55.776Z,12.90
2018-03-29T04:19:55.965Z,12.20
2018-03-29T04:20:56.078Z,12.40
2018-03-29T04:21:56.212Z,11.60
2018-03-29T04:22:56.358Z,12.60
2018-03-29T04:23:56.506Z,12.50
2018-03-29T04:24:56.655Z,12.60
2018-03-29T04:25:56.799Z,12.00
2018-03-29T04:26:56.993Z,12.30
2018-03-29T04:27:57.093Z,12.40
2018-03-29T04:28:57.240Z,12.30
2018-03-29T04:29:57.385Z,12.20
2018-03-29T04:30:57.535Z,12.40
2018-03-29T04:31:57.683Z,11.20
2018-03-29T04:32:57.828Z,11.70
2018-03-29T04:33:57.975Z,12.20
2018-03-29T04:34:58.120Z,12.00
2018-03-29T04:35:58.274Z,11.60
2018-03-29T04:36:58.425Z,11.60
2018-03-29T04:37:58.572Z,12.20
2018-03-29T04:38:58.717Z,11.60
2018-03-29T04:39:58.864Z,10.70
2018-03-29T04:40:59.016Z,11.40
2018-03-29T04:41:59.160Z,12.40
2018-03-29T04:42:59.302Z,11.50
2018-03-29T04:43:59.447Z,12.50
2018-03-29T04:44:59.595Z,11.90
2018-03-29T04:45:59.744Z,13.00
2018-03-29T04:46:59.889Z,12.70
2018-03-29T04:48:00.035Z,12.60
2018-03-29T04:49:00.183Z,12.30
2018-03-29T04:50:00.329Z,12.90
2018-03-29T04:51:00.481Z,12.60
2018-03-29T04:52:00.625Z,12.70
2018-03-29T04:53:00.772Z,12.40
2018-03-29T04:54:00.917Z,12.70
2018-03-29T04:55:01.066Z,11.60
2018-03-29T04:56:01.212Z,11.60
2018-03-29T04:57:01.357Z,11.30
2018-03-29T04:58:01.505Z,12.60
2018-03-29T04:59:01.652Z,11.80
2018-03-29T05:00:01.799Z,11.60
2018-03-29T05:01:01.946Z,12.50
2018-03-29T05:02:02.098Z,11.50
2018-03-29T05:03:02.244Z,11.70
2018-03-29T05:04:02.387Z,12.00
2018-03-29T05:05:02.537Z,11.30
2018-03-29T05:06:02.679Z,11.60
2018-03-29T05:07:02.825Z,12.20
2018-03-29T05:08:02.971Z,12.00
2018-03-29T05:09:03.119Z,11.70
2018-03-29T05:10:03.266Z,11.80
2018-03-29T05:11:03.411Z,11.80
2018-03-29T05:12:03.556Z,12.20
2018-03-29T05:13:03.702Z,11.60
2018-03-29T05:14:03.850Z,12.20
2018-03-29T05:15:03.999Z,12.00
2018-03-29T05:16:04.146Z,11.90
2018-03-29T05:17:04.291Z,12.00
2018-03-29T05:18:04.440Z,12.50
2018-03-29T05:19:04.582Z,12.50
2018-03-29T05:20:04.728Z,12.10
2018-03-29T05:21:04.883Z,12.30
2018-03-29T05:22:05.024Z,12.50
2018-03-29T05:23:05.175Z,12.20
2018-03-29T05:24:05.326Z,12.10
2018-03-29T05:25:05.466Z,12.00
2018-03-29T05:26:05.607Z,12.70
2018-03-29T05:27:05.755Z,11.80
2018-03-29T05:28:05.902Z,12.30
2018-03-29T05:29:06.049Z,11.50
2018-03-29T05:30:06.196Z,11.60
2018-03-29T05:31:06.340Z,12.00
2018-03-29T05:32:06.486Z,12.00
2018-03-29T05:33:06.644Z,12.60
2018-03-29T05:34:06.784Z,13.10
2018-03-29T05:35:06.920Z,12.70
2018-03-29T05:36:07.066Z,12.30
2018-03-29T05:37:07.219Z,12.70
2018-03-29T05:38:07.366Z,12.40
2018-03-29T05:39:07.509Z,13.60
2018-03-29T05:40:07.675Z,13.10
2018-03-29T05:41:07.808Z,13.40
2018-03-29T05:42:07.961Z,14.50
2018-03-29T05:43:08.103Z,14.20
2018-03-29T05:44:08.248Z,14.30
2018-03-29T05:45:08.394Z,14.30
2018-03-29T05:46:08.539Z,14.20
2018-03-29T05:47:08.683Z,14.30
2018-03-29T05:48:08.831Z,14.70
2018-03-29T05:49:08.977Z,15.10
2018-03-29T05:50:09.118Z,14.90
2018-03-29T05:51:09.268Z,14.40
2018-03-29T05:52:09.417Z,13.80
2018-03-29T05:53:09.571Z,14.80
2018-03-29T05:54:09.718Z,14.90
2018-03-29T05:55:09.864Z,14.60
2018-03-29T05:56:10.012Z,14.20
2018-03-29T05:57:10.156Z,15.50
2018-03-29T05:58:10.303Z,15.50
2018-03-29T05:59:10.449Z,15.00
2018-03-29T06:00:10.596Z,14.60
2018-03-29T06:01:10.743Z,14.80
2018-03-29T06:02:10.891Z,15.00
2018-03-29T06:03:11.047Z,14.70
2018-03-29T06:04:11.183Z,14.30
2018-03-29T06:05:11.330Z,14.00
2018-03-29T06:06:11.478Z,14.40
2018-03-29T06:07:11.664Z,13.60
2018-03-29T06:08:11.774Z,14.00
2018-03-29T06:09:11.918Z,13.40
2018-03-29T06:10:12.071Z,13.10
2018-03-29T06:11:12.218Z,13.00
2018-03-29T06:12:12.361Z,13.40
2018-03-29T06:13:12.508Z,12.90
2018-03-29T06:14:12.654Z,14.10
2018-03-29T06:15:12.804Z,13.20
2018-03-29T06:16:12.953Z,13.00
2018-03-29T06:17:13.097Z,13.80
2018-03-29T06:18:13.245Z,12.50
2018-03-29T06:19:13.394Z,13.10
2018-03-29T06:20:13.537Z,12.50
2018-03-29T06:21:13.686Z,11.90
2018-03-29T06:22:13.830Z,12.40
2018-03-29T06:23:13.996Z,11.90
2018-03-29T06:24:14.125Z,12.00
2018-03-29T06:25:14.274Z,12.40
2018-03-29T06:26:14.419Z,11.90
2018-03-29T06:27:14.567Z,12.40
2018-03-29T06:28:14.714Z,12.70
2018-03-29T06:29:14.859Z,12.60
2018-03-29T06:30:15.005Z,12.30
2018-03-29T06:31:15.150Z,12.50
2018-03-29T06:32:15.298Z,12.90
2018-03-29T06:33:15.444Z,12.40
2018-03-29T06:34:15.591Z,12.50
2018-03-29T06:35:15.741Z,12.80
2018-03-29T06:36:15.889Z,12.90
2018-03-29T06:37:16.034Z,13.70
2018-03-29T06:38:16.181Z,14.40
2018-03-29T06:39:16.331Z,13.60
2018-03-29T06:40:16.477Z,13.50
2018-03-29T06:41:16.620Z,13.60
2018-03-29T06:42:16.768Z,12.90
2018-03-29T06:43:16.917Z,13.80
2018-03-29T06:44:17.062Z,14.20
2018-03-29T06:45:17.211Z,13.60
2018-03-29T06:46:17.357Z,13.60
2018-03-29T06:47:17.506Z,13.80
2018-03-29T06:48:17.656Z,14.20
2018-03-29T06:49:17.802Z,14.40
2018-03-29T06:50:17.948Z,14.00
2018-03-29T06:51:18.095Z,15.00
2018-03-29T06:52:18.244Z,14.50
2018-03-29T06:53:18.389Z,15.00
2018-03-29T06:54:18.540Z,14.60
2018-03-29T06:55:18.686Z,14.90
2018-03-29T06:56:18.833Z,14.50
2018-03-29T06:57:18.978Z,14.40
2018-03-29T06:58:19.124Z,15.10
2018-03-29T06:59:19.271Z,14.60
2018-03-29T07:00:19.418Z,15.10
2018-03-29T07:01:19.567Z,14.80
2018-03-29T07:02:19.713Z,14.70
2018-03-29T07:03:19.860Z,15.10
2018-03-29T07:04:20.007Z,15.00
2018-03-29T07:05:20.154Z,14.90
2018-03-29T07:06:20.303Z,15.10
2018-03-29T07:07:20.459Z,15.10
2018-03-29T07:08:20.599Z,15.50
2018-03-29T07:09:20.749Z,15.70
2018-03-29T07:10:20.896Z,15.20
2018-03-29T07:11:21.076Z,15.80
2018-03-29T07:12:21.223Z,16.10
2018-03-29T07:13:21.372Z,15.00
2018-03-29T07:14:21.522Z,15.60
2018-03-29T07:15:21.666Z,16.10
2018-03-29T07:16:21.815Z,15.40
2018-03-29T07:17:21.959Z,14.90
2018-03-29T07:18:22.109Z,15.80
2018-03-29T07:19:22.258Z,15.70
2018-03-29T07:20:22.405Z,14.90
2018-03-29T07:21:22.554Z,14.90
2018-03-29T07:22:22.698Z,14.90
2018-03-29T07:23:22.850Z,14.60
2018-03-29T07:24:22.992Z,14.90
2018-03-29T07:25:23.125Z,14.40
2018-03-29T07:26:23.285Z,14.40
2018-03-29T07:27:23.423Z,14.70
2018-03-29T07:28:23.569Z,14.80
2018-03-29T07:29:23.718Z,14.50
2018-03-29T07:30:23.867Z,14.40
2018-03-29T07:31:24.015Z,15.00
2018-03-29T07:32:24.165Z,15.00
2018-03-29T07:33:24.314Z,15.20
2018-03-29T07:34:24.462Z,14.40
2018-03-29T07:35:24.608Z,14.40
2018-03-29T07:36:24.765Z,14.90
2018-03-29T07:37:24.911Z,14.20
2018-03-29T07:38:25.050Z,14.10
2018-03-29T07:39:25.199Z,14.50
2018-03-29T07:40:25.345Z,14.30
2018-03-29T07:41:25.494Z,14.70
2018-03-29T07:42:25.650Z,14.40
2018-03-29T07:43:25.791Z,14.30
2018-03-29T07:44:25.942Z,13.90
2018-03-29T07:45:26.088Z,14.20
2018-03-29T07:46:26.239Z,13.80
2018-03-29T07:47:26.384Z,13.10
2018-03-29T07:48:26.529Z,13.90
2018-03-29T07:49:26.677Z,13.50
2018-03-29T07:50:26.826Z,13.70
2018-03-29T07:51:26.972Z,13.50
2018-03-29T07:52:27.126Z,13.40
2018-03-29T07:53:27.273Z,13.30
2018-03-29T07:54:27.410Z,13.20
2018-03-29T07:55:27.555Z,13.10
2018-03-29T07:56:27.700Z,13.60
2018-03-29T07:57:27.851Z,13.30
2018-03-29T07:58:28.002Z,14.00
2018-03-29T07:59:28.151Z,12.60
2018-03-29T08:00:28.315Z,13.20
2018-03-29T08:01:28.447Z,12.40
2018-03-29T08:02:28.597Z,13.00
2018-03-29T08:03:28.744Z,13.20
2018-03-29T08:04:28.894Z,13.00
2018-03-29T08:05:29.040Z,12.60
2018-03-29T08:06:29.185Z,13.00
2018-03-29T08:07:29.333Z,12.90
2018-03-29T08:08:29.482Z,13.30
2018-03-29T08:09:29.631Z,13.40
2018-03-29T08:10:29.779Z,12.90
2018-03-29T08:11:29.926Z,13.10
2018-03-29T08:12:30.076Z,12.90
2018-03-29T08:13:30.227Z,12.60
2018-03-29T08:14:30.374Z,12.50
2018-03-29T08:15:30.522Z,12.40
2018-03-29T08:16:30.673Z,12.30
2018-03-29T08:17:30.817Z,12.60
2018-03-29T08:18:30.967Z,12.30
2018-03-29T08:19:31.116Z,12.60
2018-03-29T08:20:31.267Z,11.70
2018-03-29T08:21:31.415Z,11.80
2018-03-29T08:22:31.566Z,12.40
2018-03-29T08:23:31.714Z,12.20
2018-03-29T08:24:31.865Z,12.40
2018-03-29T08:25:32.010Z,12.30
2018-03-29T08:26:32.163Z,13.40
2018-03-29T08:27:32.313Z,12.80
2018-03-29T08:28:32.459Z,12.80
2018-03-29T08:29:32.606Z,13.00
2018-03-29T08:30:32.756Z,12.60
2018-03-29T08:31:32.906Z,12.50
2018-03-29T08:32:33.056Z,12.30
2018-03-29T08:33:33.205Z,13.10
2018-03-29T08:34:33.358Z,13.80
2018-03-29T08:35:33.510Z,12.80
2018-03-29T08:36:33.658Z,12.40
2018-03-29T08:37:33.807Z,12.40
2018-03-29T08:38:33.957Z,12.70
2018-03-29T08:39:34.106Z,13.90
2018-03-29T08:40:34.254Z,16.60
2018-03-29T08:41:34.403Z,14.30
2018-03-29T08:42:34.552Z,14.10
2018-03-29T08:43:34.706Z,14.20
2018-03-29T08:44:34.854Z,14.00
2018-03-29T08:45:35.003Z,14.50
2018-03-29T08:46:35.155Z,14.90
2018-03-29T08:47:35.304Z,14.20
2018-03-29T08:48:35.454Z,14.50
2018-03-29T08:49:35.600Z,14.50
2018-03-29T08:50:35.749Z,15.10
2018-03-29T08:51:35.901Z,14.60
2018-03-29T08:52:36.050Z,14.70
2018-03-29T08:53:36.224Z,14.20
2018-03-29T08:54:36.361Z,14.40
2018-03-29T08:55:36.498Z,14.60
2018-03-29T08:56:36.648Z,14.60
2018-03-29T08:57:36.795Z,14.90
2018-03-29T08:58:36.950Z,14.20
2018-03-29T08:59:37.103Z,14.90
2018-03-29T09:00:37.254Z,14.50
2018-03-29T09:01:37.404Z,14.60
2018-03-29T09:02:37.553Z,14.20
2018-03-29T09:03:37.706Z,14.00
2018-03-29T09:04:37.856Z,14.70
2018-03-29T09:05:38.000Z,14.20
2018-03-29T09:06:38.150Z,14.50
2018-03-29T09:07:38.301Z,14.40
2018-03-29T09:08:38.452Z,14.60
2018-03-29T09:09:38.602Z,14.20
2018-03-29T09:10:38.750Z,13.30
2018-03-29T09:11:38.899Z,13.00
2018-03-29T09:12:39.049Z,12.70
2018-03-29T09:13:39.199Z,12.90
2018-03-29T09:14:39.349Z,13.00
2018-03-29T09:15:39.501Z,12.60
2018-03-29T09:16:39.650Z,13.00
2018-03-29T09:17:39.801Z,12.90
2018-03-29T09:18:39.955Z,12.10
2018-03-29T09:19:40.097Z,12.60
2018-03-29T09:20:40.250Z,12.50
2018-03-29T09:21:40.402Z,13.40
2018-03-29T09:22:40.547Z,12.10
2018-03-29T09:23:40.695Z,12.80
2018-03-29T09:24:40.846Z,12.40
2018-03-29T09:25:40.997Z,12.60
2018-03-29T09:26:41.148Z,12.70
2018-03-29T09:27:41.297Z,13.00
2018-03-29T09:28:41.448Z,13.40
2018-03-29T09:29:41.595Z,13.10
2018-03-29T09:30:41.747Z,13.20
2018-03-29T09:31:41.897Z,12.90
2018-03-29T09:32:42.049Z,12.10
2018-03-29T09:33:42.196Z,12.20
2018-03-29T09:34:42.347Z,12.60
2018-03-29T09:35:42.497Z,12.40
2018-03-29T09:36:42.653Z,12.40
2018-03-29T09:37:42.793Z,12.40
2018-03-29T09:38:42.945Z,12.90
2018-03-29T09:39:43.105Z,12.70
2018-03-29T09:40:43.250Z,11.90
2018-03-29T09:41:43.395Z,12.30
2018-03-29T09:42:43.549Z,13.20
2018-03-29T09:43:43.708Z,12.00
2018-03-29T09:44:43.851Z,12.60
2018-03-29T09:45:44.002Z,12.30
2018-03-29T09:46:44.153Z,12.30
2018-03-29T09:47:44.332Z,11.60
2018-03-29T09:48:44.453Z,11.70
2018-03-29T09:49:44.602Z,11.90
2018-03-29T09:50:44.751Z,11.70
2018-03-29T09:51:44.902Z,11.30
2018-03-29T09:52:45.052Z,11.20
2018-03-29T09:53:45.210Z,11.30
2018-03-29T09:54:45.356Z,11.10
2018-03-29T09:55:45.505Z,11.10
2018-03-29T09:56:45.656Z,11.60
2018-03-29T09:57:45.804Z,11.20
2018-03-29T09:58:45.954Z,11.40
2018-03-29T09:59:46.104Z,12.00
2018-03-29T10:00:46.249Z,11.40
2018-03-29T10:01:46.397Z,11.00
2018-03-29T10:02:46.547Z,11.00
2018-03-29T10:03:46.708Z,11.10
2018-03-29T10:04:46.838Z,11.10
2018-03-29T10:05:46.989Z,10.80
2018-03-29T10:06:47.144Z,11.10
2018-03-29T10:07:47.293Z,11.10
2018-03-29T10:08:47.443Z,10.90
2018-03-29T10:09:47.593Z,11.00
2018-03-29T10:10:47.741Z,10.80
2018-03-29T10:11:47.890Z,10.80
2018-03-29T10:12:48.044Z,11.00
2018-03-29T10:13:48.193Z,11.20
2018-03-29T10:14:48.347Z,10.60
2018-03-29T10:15:48.493Z,11.20
2018-03-29T10:16:48.644Z,10.90
2018-03-29T10:17:48.795Z,11.60
2018-03-29T10:18:48.952Z,10.80
2018-03-29T10:19:49.094Z,10.90
2018-03-29T10:20:49.245Z,11.50
2018-03-29T10:21:49.394Z,10.40
2018-03-29T10:22:49.543Z,11.10
2018-03-29T10:23:49.692Z,10.50
2018-03-29T10:24:49.843Z,10.60
2018-03-29T10:25:49.989Z,10.60
2018-03-29T10:26:50.141Z,10.10
2018-03-29T10:27:50.293Z,10.50
2018-03-29T10:28:50.441Z,10.10
2018-03-29T10:29:50.592Z,10.00
2018-03-29T10:30:50.741Z,10.20
2018-03-29T10:31:50.889Z,10.50
2018-03-29T10:32:51.041Z,10.40
2018-03-29T10:33:51.218Z,10.40
2018-03-29T10:34:51.367Z,11.10
2018-03-29T10:35:51.545Z,10.70
2018-03-29T10:36:51.666Z,10.40
2018-03-29T10:37:51.818Z,10.70
2018-03-29T10:38:51.967Z,10.40
2018-03-29T10:39:52.119Z,11.30
2018-03-29T10:40:52.268Z,11.10
2018-03-29T10:41:52.416Z,11.30
2018-03-29T10:42:52.567Z,10.70
2018-03-29T10:43:52.717Z,11.00
2018-03-29T10:44:52.867Z,11.00
2018-03-29T10:45:53.018Z,11.10
2018-03-29T10:46:53.163Z,10.70
2018-03-29T10:47:53.317Z,10.60
2018-03-29T10:48:53.466Z,11.10
2018-03-29T10:49:53.617Z,10.50
2018-03-29T10:50:53.765Z,10.50
2018-03-29T10:51:53.918Z,10.90
2018-03-29T10:52:54.070Z,11.20
2018-03-29T10:53:54.217Z,11.20
2018-03-29T10:54:54.368Z,10.40
2018-03-29T10:55:54.516Z,10.40
2018-03-29T10:56:54.672Z,10.60
2018-03-29T10:57:54.827Z,10.30
2018-03-29T10:58:54.972Z,10.30
2018-03-29T10:59:55.121Z,9.90
2018-03-29T11:00:55.275Z,10.30
2018-03-29T11:01:55.423Z,10.50
2018-03-29T11:02:55.574Z,11.20
2018-03-29T11:03:55.722Z,10.40
2018-03-29T11:04:55.875Z,10.50
2018-03-29T11:05:56.021Z,10.90
2018-03-29T11:06:56.173Z,10.30
2018-03-29T11:07:56.324Z,10.40
2018-03-29T11:08:56.475Z,10.50
2018-03-29T11:09:56.623Z,10.70
2018-03-29T11:10:56.774Z,11.00
2018-03-29T11:11:56.927Z,11.60
2018-03-29T11:12:57.078Z,12.00
2018-03-29T11:13:57.229Z,11.20
2018-03-29T11:14:57.384Z,11.40
2018-03-29T11:15:57.528Z,11.80
2018-03-29T11:16:57.700Z,12.00
2018-03-29T11:17:57.830Z,12.50
2018-03-29T11:18:57.977Z,12.40
2018-03-29T11:19:58.129Z,12.40
2018-03-29T11:20:58.295Z,12.60
2018-03-29T11:21:58.423Z,12.80
2018-03-29T11:22:58.571Z,12.90
2018-03-29T11:23:58.729Z,12.30
2018-03-29T11:24:58.888Z,12.60
2018-03-29T11:25:59.026Z,12.80
2018-03-29T11:26:59.223Z,13.00
2018-03-29T11:27:59.324Z,11.70
2018-03-29T11:28:59.473Z,12.40
2018-03-29T11:29:59.623Z,11.90
2018-03-29T11:30:59.773Z,12.70
2018-03-29T11:31:59.923Z,12.80
2018-03-29T11:33:00.074Z,12.70
2018-03-29T11:34:00.222Z,12.40
2018-03-29T11:35:00.372Z,12.50
2018-03-29T11:36:00.522Z,12.70
2018-03-29T11:37:00.673Z,13.10
2018-03-29T11:38:00.825Z,13.40
2018-03-29T11:39:00.975Z,13.10
2018-03-29T11:40:01.127Z,13.00
2018-03-29T11:41:01.278Z,12.70
2018-03-29T11:42:01.427Z,13.30
2018-03-29T11:43:01.579Z,13.00
2018-03-29T11:44:01.733Z,12.50
2018-03-29T11:45:01.884Z,11.60
2018-03-29T11:46:02.037Z,12.40
2018-03-29T11:47:02.227Z,12.10
2018-03-29T11:48:02.453Z,12.60
2018-03-29T11:49:02.472Z,11.60
2018-03-29T11:50:02.626Z,12.40
2018-03-29T11:51:02.780Z,12.00
2018-03-29T11:52:02.933Z,12.70
2018-03-29T11:53:03.068Z,11.60
2018-03-29T11:54:03.226Z,11.80
2018-03-29T11:55:03.393Z,11.50
2018-03-29T11:56:03.515Z,11.60
2018-03-29T11:57:03.673Z,11.60
2018-03-29T11:58:03.814Z,11.10
2018-03-29T11:59:03.965Z,11.50
2018-03-29T12:00:04.116Z,11.70
2018-03-29T12:01:04.275Z,11.00
2018-03-29T12:02:04.421Z,10.40
2018-03-29T12:03:04.601Z,10.90
2018-03-29T12:04:04.724Z,11.10
2018-03-29T12:05:04.948Z,11.00
2018-03-29T12:06:05.026Z,10.60
2018-03-29T12:07:05.174Z,11.60
2018-03-29T12:08:05.325Z,11.10
2018-03-29T12:09:05.494Z,11.10
2018-03-29T12:10:05.626Z,11.60
2018-03-29T12:11:05.778Z,11.80
2018-03-29T12:12:05.926Z,11.10
2018-03-29T12:13:06.074Z,12.20
2018-03-29T12:14:06.229Z,11.90
2018-03-29T12:15:06.415Z,11.60
2018-03-29T12:16:06.531Z,11.50
2018-03-29T12:17:06.752Z,11.70
2018-03-29T12:18:06.783Z,11.30
2018-03-29T12:19:06.938Z,10.40
2018-03-29T12:20:07.087Z,10.60
2018-03-29T12:21:07.236Z,10.90
2018-03-29T12:22:07.387Z,10.50
2018-03-29T12:23:07.548Z,10.90
2018-03-29T12:24:07.693Z,10.40
2018-03-29T12:25:07.841Z,10.30
2018-03-29T12:26:07.994Z,10.90
2018-03-29T12:27:08.151Z,11.30
2018-03-29T12:28:08.300Z,11.30
2018-03-29T12:29:08.450Z,10.90
2018-03-29T12:30:08.604Z,11.10
2018-03-29T12:31:08.760Z,10.80
2018-03-29T12:32:08.910Z,11.10
2018-03-29T12:33:09.137Z,10.90
2018-03-29T12:34:09.229Z,11.80
2018-03-29T12:35:09.352Z,10.90
2018-03-29T12:36:09.505Z,10.80
2018-03-29T12:37:09.653Z,10.70
2018-03-29T12:38:09.811Z,11.40
2018-03-29T12:39:09.985Z,10.10
2018-03-29T12:40:10.107Z,10.90
2018-03-29T12:41:10.259Z,10.90
2018-03-29T12:42:10.412Z,10.30
2018-03-29T12:43:10.564Z,10.30
2018-03-29T12:44:10.717Z,9.70
2018-03-29T12:45:10.870Z,9.20
2018-03-29T12:46:11.023Z,9.00
2018-03-29T12:47:11.175Z,9.40
2018-03-29T12:48:11.327Z,9.40
2018-03-29T12:49:11.479Z,9.00
2018-03-29T12:50:11.635Z,9.10
2018-03-29T12:51:11.788Z,8.90
2018-03-29T12:52:11.950Z,8.80
2018-03-29T12:53:12.094Z,8.80
2018-03-29T12:54:12.250Z,9.30
2018-03-29T12:55:12.400Z,9.10
2018-03-29T12:56:12.555Z,9.30
2018-03-29T12:57:12.711Z,10.10
2018-03-29T12:58:12.858Z,9.60